sensor_id;sensor_type;location;lat;lon;timestamp;pressure;altitude;pressure_sealevel;temperature;humidity
50380;BME280;37474;59.468;18.040;2023-04-04T00:01:34;102974.44;;;-7.51;100.00
50380;BME280;37474;59.468;18.040;2023-04-04T00:04:02;102968.69;;;-7.63;100.00
50380;BME280;37474;59.468;18.040;2023-04-04T00:06:32;102981.31;;;-7.49;100.00
50380;BME280;37474;59.468;18.040;2023-04-04T00:09:03;102970.47;;;-7.33;100.00
50380;BME280;37474;59.468;18.040;2023-04-04T00:11:31;102968.91;;;-7.60;100.00
50380;BME280;37474;59.468;18.040;2023-04-04T00:14:01;102964.44;;;-7.64;100.00
50380;BME280;37474;59.468;18.040;2023-04-04T00:16:32;102961.69;;;-7.54;100.00
50380;BME280;37474;59.468;18.040;2023-04-04T00:19:00;102958.81;;;-7.46;100.00
50380;BME280;37474;59.468;18.040;2023-04-04T00:21:32;102959.84;;;-7.57;100.00
50380;BME280;37474;59.468;18.040;2023-04-04T00:24:00;102951.34;;;-7.44;100.00
50380;BME280;37474;59.468;18.040;2023-04-04T00:26:28;102953.16;;;-7.71;100.00
50380;BME280;37474;59.468;18.040;2023-04-04T00:29:02;102954.38;;;-7.64;100.00
50380;BME280;37474;59.468;18.040;2023-04-04T00:31:29;102949.81;;;-7.85;100.00
50380;BME280;37474;59.468;18.040;2023-04-04T00:33:59;102948.50;;;-7.93;100.00
50380;BME280;37474;59.468;18.040;2023-04-04T00:36:33;102945.81;;;-7.81;100.00
50380;BME280;37474;59.468;18.040;2023-04-04T00:39:04;102939.69;;;-8.00;100.00
50380;BME280;37474;59.468;18.040;2023-04-04T00:41:33;102936.91;;;-7.76;100.00
50380;BME280;37474;59.468;18.040;2023-04-04T00:44:04;102939.13;;;-7.81;100.00
50380;BME280;37474;59.468;18.040;2023-04-04T00:46:32;102932.69;;;-8.18;100.00
50380;BME280;37474;59.468;18.040;2023-04-04T00:49:04;102937.94;;;-8.15;100.00
50380;BME280;37474;59.468;18.040;2023-04-04T00:51:35;102932.75;;;-7.89;100.00
50380;BME280;37474;59.468;18.040;2023-04-04T00:54:05;102928.31;;;-7.65;100.00
50380;BME280;37474;59.468;18.040;2023-04-04T00:56:34;102884.34;;;-7.85;100.00
50380;BME280;37474;59.468;18.040;2023-04-04T00:59:04;102881.44;;;-8.06;100.00
50380;BME280;37474;59.468;18.040;2023-04-04T01:01:35;102917.22;;;-7.54;100.00
50380;BME280;37474;59.468;18.040;2023-04-04T01:04:04;102922.31;;;-7.67;100.00
50380;BME280;37474;59.468;18.040;2023-04-04T01:06:37;102916.94;;;-8.01;100.00
50380;BME280;37474;59.468;18.040;2023-04-04T01:09:06;102916.81;;;-8.17;100.00
50380;BME280;37474;59.468;18.040;2023-04-04T01:11:34;102913.72;;;-8.41;100.00
50380;BME280;37474;59.468;18.040;2023-04-04T01:14:04;102910.28;;;-8.57;100.00
50380;BME280;37474;59.468;18.040;2023-04-04T01:16:34;102911.56;;;-8.63;100.00
50380;BME280;37474;59.468;18.040;2023-04-04T01:19:08;102911.44;;;-8.52;100.00
50380;BME280;37474;59.468;18.040;2023-04-04T01:21:40;102893.59;;;-8.83;100.00
50380;BME280;37474;59.468;18.040;2023-04-04T01:24:11;102904.34;;;-8.44;100.00
50380;BME280;37474;59.468;18.040;2023-04-04T01:26:43;102905.34;;;-7.99;100.00
50380;BME280;37474;59.468;18.040;2023-04-04T01:29:12;102908.81;;;-7.97;100.00
50380;BME280;37474;59.468;18.040;2023-04-04T01:31:42;102910.25;;;-8.01;100.00
50380;BME280;37474;59.468;18.040;2023-04-04T01:34:21;102905.84;;;-7.90;100.00
50380;BME280;37474;59.468;18.040;2023-04-04T01:36:56;102916.34;;;-8.40;100.00
50380;BME280;37474;59.468;18.040;2023-04-04T01:39:31;102915.28;;;-8.43;100.00
50380;BME280;37474;59.468;18.040;2023-04-04T01:42:04;102913.91;;;-8.10;100.00
50380;BME280;37474;59.468;18.040;2023-04-04T01:44:38;102907.59;;;-8.04;100.00
50380;BME280;37474;59.468;18.040;2023-04-04T01:47:07;102908.22;;;-8.21;100.00
50380;BME280;37474;59.468;18.040;2023-04-04T01:49:35;102911.38;;;-8.38;100.00
50380;BME280;37474;59.468;18.040;2023-04-04T01:52:06;102905.34;;;-8.27;100.00
50380;BME280;37474;59.468;18.040;2023-04-04T01:54:34;102906.78;;;-8.45;100.00
50380;BME280;37474;59.468;18.040;2023-04-04T01:57:03;102905.53;;;-8.52;100.00
50380;BME280;37474;59.468;18.040;2023-04-04T01:59:35;102898.72;;;-8.81;100.00
50380;BME280;37474;59.468;18.040;2023-04-04T02:02:03;102903.66;;;-8.83;100.00
50380;BME280;37474;59.468;18.040;2023-04-04T02:04:31;102841.75;;;-8.81;100.00
50380;BME280;37474;59.468;18.040;2023-04-04T02:07:03;102886.97;;;-8.67;100.00
50380;BME280;37474;59.468;18.040;2023-04-04T02:09:33;102890.28;;;-8.68;100.00
50380;BME280;37474;59.468;18.040;2023-04-04T02:12:01;102890.31;;;-8.95;100.00
50380;BME280;37474;59.468;18.040;2023-04-04T02:14:32;102887.81;;;-9.08;100.00
50380;BME280;37474;59.468;18.040;2023-04-04T02:17:02;102826.13;;;-9.16;100.00
50380;BME280;37474;59.468;18.040;2023-04-04T02:19:30;102881.38;;;-8.63;100.00
50380;BME280;37474;59.468;18.040;2023-04-04T02:22:01;102881.56;;;-8.73;100.00
50380;BME280;37474;59.468;18.040;2023-04-04T02:24:31;102882.06;;;-8.79;100.00
50380;BME280;37474;59.468;18.040;2023-04-04T02:26:58;102882.81;;;-8.67;100.00
50380;BME280;37474;59.468;18.040;2023-04-04T02:29:28;102872.72;;;-8.82;100.00
50380;BME280;37474;59.468;18.040;2023-04-04T02:32:00;102873.88;;;-8.90;100.00
50380;BME280;37474;59.468;18.040;2023-04-04T02:34:27;102865.69;;;-8.59;100.00
50380;BME280;37474;59.468;18.040;2023-04-04T02:36:57;102871.06;;;-8.94;100.00
50380;BME280;37474;59.468;18.040;2023-04-04T02:39:27;102872.53;;;-8.98;100.00
50380;BME280;37474;59.468;18.040;2023-04-04T02:41:54;102844.22;;;-8.67;100.00
50380;BME280;37474;59.468;18.040;2023-04-04T02:44:24;102803.72;;;-9.13;100.00
50380;BME280;37474;59.468;18.040;2023-04-04T02:46:54;102868.75;;;-9.18;100.00
50380;BME280;37474;59.468;18.040;2023-04-04T02:49:24;102880.84;;;-9.25;100.00
50380;BME280;37474;59.468;18.040;2023-04-04T02:51:55;102838.53;;;-9.59;100.00
50380;BME280;37474;59.468;18.040;2023-04-04T02:54:25;102870.78;;;-9.12;100.00
50380;BME280;37474;59.468;18.040;2023-04-04T02:56:53;102875.63;;;-9.02;100.00
50380;BME280;37474;59.468;18.040;2023-04-04T02:59:23;102871.34;;;-8.90;100.00
50380;BME280;37474;59.468;18.040;2023-04-04T03:01:53;102866.50;;;-8.73;100.00
50380;BME280;37474;59.468;18.040;2023-04-04T03:04:21;102867.88;;;-8.92;100.00
50380;BME280;37474;59.468;18.040;2023-04-04T03:06:52;102786.38;;;-9.37;100.00
50380;BME280;37474;59.468;18.040;2023-04-04T03:09:24;102874.16;;;-9.12;100.00
50380;BME280;37474;59.468;18.040;2023-04-04T03:11:52;102875.22;;;-9.35;100.00
50380;BME280;37474;59.468;18.040;2023-04-04T03:14:19;102877.66;;;-9.23;100.00
50380;BME280;37474;59.468;18.040;2023-04-04T03:16:52;102866.81;;;-9.22;100.00
50380;BME280;37474;59.468;18.040;2023-04-04T03:19:20;102863.31;;;-8.84;100.00
50380;BME280;37474;59.468;18.040;2023-04-04T03:21:48;102832.44;;;-9.10;100.00
50380;BME280;37474;59.468;18.040;2023-04-04T03:24:20;102859.91;;;-8.58;100.00
50380;BME280;37474;59.468;18.040;2023-04-04T03:26:51;102829.13;;;-8.95;100.00
50380;BME280;37474;59.468;18.040;2023-04-04T03:29:19;102854.56;;;-9.04;100.00
50380;BME280;37474;59.468;18.040;2023-04-04T03:31:49;102861.69;;;-8.97;100.00
50380;BME280;37474;59.468;18.040;2023-04-04T03:34:18;102849.25;;;-8.67;100.00
50380;BME280;37474;59.468;18.040;2023-04-04T03:36:46;102846.38;;;-8.60;100.00
50380;BME280;37474;59.468;18.040;2023-04-04T03:39:16;102852.75;;;-8.65;100.00
50380;BME280;37474;59.468;18.040;2023-04-04T03:41:49;102850.97;;;-9.08;100.00
50380;BME280;37474;59.468;18.040;2023-04-04T03:44:17;102840.53;;;-8.87;100.00
50380;BME280;37474;59.468;18.040;2023-04-04T03:46:45;102843.53;;;-8.93;100.00
50380;BME280;37474;59.468;18.040;2023-04-04T03:49:16;102842.38;;;-8.98;100.00
50380;BME280;37474;59.468;18.040;2023-04-04T03:51:44;102844.72;;;-8.73;100.00
50380;BME280;37474;59.468;18.040;2023-04-04T03:54:13;102840.06;;;-8.67;100.00
50380;BME280;37474;59.468;18.040;2023-04-04T03:56:45;102846.38;;;-8.60;100.00
50380;BME280;37474;59.468;18.040;2023-04-04T03:59:16;102836.16;;;-8.34;100.00
50380;BME280;37474;59.468;18.040;2023-04-04T04:01:44;102831.41;;;-8.29;100.00
50380;BME280;37474;59.468;18.040;2023-04-04T04:04:14;102829.53;;;-7.89;100.00
50380;BME280;37474;59.468;18.040;2023-04-04T04:06:44;102802.53;;;-8.36;100.00
50380;BME280;37474;59.468;18.040;2023-04-04T04:09:14;102803.28;;;-8.52;100.00
50380;BME280;37474;59.468;18.040;2023-04-04T04:11:43;102820.88;;;-8.09;100.00
50380;BME280;37474;59.468;18.040;2023-04-04T04:14:13;102820.09;;;-7.93;100.00
50380;BME280;37474;59.468;18.040;2023-04-04T04:16:43;102817.75;;;-7.90;100.00
50380;BME280;37474;59.468;18.040;2023-04-04T04:19:16;102812.28;;;-7.68;100.00
50380;BME280;37474;59.468;18.040;2023-04-04T04:21:45;102820.97;;;-7.48;100.00
50380;BME280;37474;59.468;18.040;2023-04-04T04:24:13;102813.47;;;-7.47;100.00
50380;BME280;37474;59.468;18.040;2023-04-04T04:26:43;102816.53;;;-7.52;100.00
50380;BME280;37474;59.468;18.040;2023-04-04T04:29:13;102810.69;;;-7.36;100.00
50380;BME280;37474;59.468;18.040;2023-04-04T04:31:43;102812.66;;;-7.00;100.00
50380;BME280;37474;59.468;18.040;2023-04-04T04:34:13;102769.94;;;-7.13;100.00
50380;BME280;37474;59.468;18.040;2023-04-04T04:36:42;102803.34;;;-6.70;100.00
50380;BME280;37474;59.468;18.040;2023-04-04T04:39:10;102807.13;;;-6.45;100.00
50380;BME280;37474;59.468;18.040;2023-04-04T04:41:40;102797.97;;;-6.27;100.00
50380;BME280;37474;59.468;18.040;2023-04-04T04:44:10;102795.13;;;-6.33;100.00
50380;BME280;37474;59.468;18.040;2023-04-04T04:46:38;102803.03;;;-6.27;100.00
50380;BME280;37474;59.468;18.040;2023-04-04T04:49:09;102799.41;;;-6.32;100.00
50380;BME280;37474;59.468;18.040;2023-04-04T04:51:39;102804.13;;;-6.22;100.00
50380;BME280;37474;59.468;18.040;2023-04-04T04:54:07;102807.16;;;-6.11;100.00
50380;BME280;37474;59.468;18.040;2023-04-04T04:56:38;102803.88;;;-6.10;100.00
50380;BME280;37474;59.468;18.040;2023-04-04T04:59:10;102803.13;;;-5.90;100.00
50380;BME280;37474;59.468;18.040;2023-04-04T05:01:38;102798.13;;;-5.72;100.00
50380;BME280;37474;59.468;18.040;2023-04-04T05:04:08;102797.19;;;-5.56;100.00
50380;BME280;37474;59.468;18.040;2023-04-04T05:06:40;102802.69;;;-5.47;100.00
50380;BME280;37474;59.468;18.040;2023-04-04T05:09:07;102751.13;;;-5.68;100.00
50380;BME280;37474;59.468;18.040;2023-04-04T05:11:35;102796.59;;;-5.50;100.00
50380;BME280;37474;59.468;18.040;2023-04-04T05:14:07;102790.19;;;-5.26;100.00
50380;BME280;37474;59.468;18.040;2023-04-04T05:16:35;102793.06;;;-5.18;100.00
50380;BME280;37474;59.468;18.040;2023-04-04T05:19:03;102799.25;;;-5.12;100.00
50380;BME280;37474;59.468;18.040;2023-04-04T05:21:32;102795.97;;;-4.91;100.00
50380;BME280;37474;59.468;18.040;2023-04-04T05:24:00;102792.59;;;-4.72;100.00
50380;BME280;37474;59.468;18.040;2023-04-04T05:26:28;102797.34;;;-4.61;100.00
50380;BME280;37474;59.468;18.040;2023-04-04T05:28:58;102789.28;;;-4.33;99.85
50380;BME280;37474;59.468;18.040;2023-04-04T05:31:28;102796.41;;;-4.43;100.00
50380;BME280;37474;59.468;18.040;2023-04-04T05:33:56;102790.59;;;-4.21;99.66
50380;BME280;37474;59.468;18.040;2023-04-04T05:36:24;102792.34;;;-4.00;96.89
50380;BME280;37474;59.468;18.040;2023-04-04T05:38:55;102789.00;;;-3.99;96.77
50380;BME280;37474;59.468;18.040;2023-04-04T05:41:23;102748.97;;;-4.07;96.49
50380;BME280;37474;59.468;18.040;2023-04-04T05:43:53;102786.03;;;-3.67;95.35
50380;BME280;37474;59.468;18.040;2023-04-04T05:46:22;102782.34;;;-3.55;95.50
50380;BME280;37474;59.468;18.040;2023-04-04T05:48:51;102779.56;;;-3.61;96.80
50380;BME280;37474;59.468;18.040;2023-04-04T05:51:21;102776.94;;;-3.41;96.02
50380;BME280;37474;59.468;18.040;2023-04-04T05:53:51;102778.38;;;-3.26;95.13
50380;BME280;37474;59.468;18.040;2023-04-04T05:56:20;102777.94;;;-3.15;93.19
50380;BME280;37474;59.468;18.040;2023-04-04T05:58:50;102772.31;;;-3.29;92.91
50380;BME280;37474;59.468;18.040;2023-04-04T06:01:18;102775.72;;;-3.29;93.11
50380;BME280;37474;59.468;18.040;2023-04-04T06:03:46;102782.66;;;-3.25;93.95
50380;BME280;37474;59.468;18.040;2023-04-04T06:06:14;102785.13;;;-3.26;94.17
50380;BME280;37474;59.468;18.040;2023-04-04T06:08:42;102782.47;;;-3.07;94.20
50380;BME280;37474;59.468;18.040;2023-04-04T06:11:22;102778.94;;;-2.88;92.42
50380;BME280;37474;59.468;18.040;2023-04-04T06:13:52;102784.34;;;-2.79;93.16
50380;BME280;37474;59.468;18.040;2023-04-04T06:16:22;102777.75;;;-2.74;92.94
50380;BME280;37474;59.468;18.040;2023-04-04T06:18:50;102737.22;;;-2.95;91.91
50380;BME280;37474;59.468;18.040;2023-04-04T06:21:20;102778.41;;;-2.79;91.62
50380;BME280;37474;59.468;18.040;2023-04-04T06:23:48;102774.66;;;-2.89;92.24
50380;BME280;37474;59.468;18.040;2023-04-04T06:26:15;102781.53;;;-2.86;94.41
50380;BME280;37474;59.468;18.040;2023-04-04T06:28:47;102777.94;;;-2.69;93.42
50380;BME280;37474;59.468;18.040;2023-04-04T06:31:17;102769.00;;;-2.58;93.05
50380;BME280;37474;59.468;18.040;2023-04-04T06:33:45;102779.31;;;-2.29;91.34
50380;BME280;37474;59.468;18.040;2023-04-04T06:36:13;102779.28;;;-2.31;90.98
50380;BME280;37474;59.468;18.040;2023-04-04T06:38:41;102775.44;;;-1.94;89.80
50380;BME280;37474;59.468;18.040;2023-04-04T06:41:08;102774.53;;;-1.95;90.66
50380;BME280;37474;59.468;18.040;2023-04-04T06:43:36;102792.03;;;-1.78;88.04
50380;BME280;37474;59.468;18.040;2023-04-04T06:46:08;102786.66;;;-2.13;88.79
50380;BME280;37474;59.468;18.040;2023-04-04T06:48:36;102790.28;;;-1.79;88.06
50380;BME280;37474;59.468;18.040;2023-04-04T06:51:06;102785.13;;;-1.82;88.20
50380;BME280;37474;59.468;18.040;2023-04-04T06:53:37;102786.22;;;-1.74;87.21
50380;BME280;37474;59.468;18.040;2023-04-04T06:56:05;102779.34;;;-2.04;90.41
50380;BME280;37474;59.468;18.040;2023-04-04T06:58:35;102714.28;;;-2.24;87.10
50380;BME280;37474;59.468;18.040;2023-04-04T07:01:06;102779.75;;;-1.92;88.21
50380;BME280;37474;59.468;18.040;2023-04-04T07:03:34;102780.63;;;-2.41;92.14
50380;BME280;37474;59.468;18.040;2023-04-04T07:06:03;102793.59;;;-2.07;90.51
50380;BME280;37474;59.468;18.040;2023-04-04T07:08:33;102786.94;;;-1.78;90.36
50380;BME280;37474;59.468;18.040;2023-04-04T07:11:02;102788.25;;;-1.64;88.76
50380;BME280;37474;59.468;18.040;2023-04-04T07:13:32;102781.13;;;-1.20;85.58
50380;BME280;37474;59.468;18.040;2023-04-04T07:16:03;102781.78;;;-1.27;84.32
50380;BME280;37474;59.468;18.040;2023-04-04T07:18:32;102773.13;;;-1.04;85.32
50380;BME280;37474;59.468;18.040;2023-04-04T07:21:00;102775.75;;;-1.01;82.79
50380;BME280;37474;59.468;18.040;2023-04-04T07:23:27;102767.72;;;-0.85;82.73
50380;BME280;37474;59.468;18.040;2023-04-04T07:25:55;102779.94;;;-0.41;79.72
50380;BME280;37474;59.468;18.040;2023-04-04T07:28:23;102784.16;;;-0.43;80.35
50380;BME280;37474;59.468;18.040;2023-04-04T07:30:58;102780.41;;;-0.86;82.89
50380;BME280;37474;59.468;18.040;2023-04-04T07:33:28;102772.81;;;-0.85;81.96
50380;BME280;37474;59.468;18.040;2023-04-04T07:35:59;102772.22;;;-0.76;82.07
50380;BME280;37474;59.468;18.040;2023-04-04T07:38:28;102770.56;;;-0.44;79.05
50380;BME280;37474;59.468;18.040;2023-04-04T07:40:58;102783.09;;;-0.18;78.43
50380;BME280;37474;59.468;18.040;2023-04-04T07:43:27;102776.19;;;-0.86;81.02
50380;BME280;37474;59.468;18.040;2023-04-04T07:45:55;102773.97;;;-0.73;81.71
50380;BME280;37474;59.468;18.040;2023-04-04T07:48:23;102782.44;;;-0.74;80.85
50380;BME280;37474;59.468;18.040;2023-04-04T07:50:52;102786.78;;;-0.72;81.72
50380;BME280;37474;59.468;18.040;2023-04-04T07:53:24;102786.16;;;-0.63;81.55
50380;BME280;37474;59.468;18.040;2023-04-04T07:55:52;102781.06;;;-0.63;80.94
50380;BME280;37474;59.468;18.040;2023-04-04T07:58:22;102771.19;;;-0.83;82.88
50380;BME280;37474;59.468;18.040;2023-04-04T08:00:49;102779.69;;;-0.50;81.32
50380;BME280;37474;59.468;18.040;2023-04-04T08:03:21;102787.75;;;-0.02;77.22
50380;BME280;37474;59.468;18.040;2023-04-04T08:05:49;102781.34;;;0.12;74.64
50380;BME280;37474;59.468;18.040;2023-04-04T08:08:17;102760.59;;;-0.35;76.84
50380;BME280;37474;59.468;18.040;2023-04-04T08:10:46;102787.59;;;-1.01;80.84
50380;BME280;37474;59.468;18.040;2023-04-04T08:13:15;102786.44;;;-0.52;79.44
50380;BME280;37474;59.468;18.040;2023-04-04T08:15:43;102793.16;;;0.10;76.44
50380;BME280;37474;59.468;18.040;2023-04-04T08:18:15;102787.75;;;0.33;74.57
50380;BME280;37474;59.468;18.040;2023-04-04T08:20:43;102789.81;;;0.11;74.52
50380;BME280;37474;59.468;18.040;2023-04-04T08:23:10;102796.25;;;0.32;75.90
50380;BME280;37474;59.468;18.040;2023-04-04T08:25:42;102797.78;;;-0.10;76.88
50380;BME280;37474;59.468;18.040;2023-04-04T08:28:12;102799.22;;;0.14;76.29
50380;BME280;37474;59.468;18.040;2023-04-04T08:30:41;102799.03;;;0.78;72.11
50380;BME280;37474;59.468;18.040;2023-04-04T08:33:10;102779.13;;;0.28;74.50
50380;BME280;37474;59.468;18.040;2023-04-04T08:35:38;102807.66;;;0.84;73.02
50380;BME280;37474;59.468;18.040;2023-04-04T08:38:06;102796.25;;;1.07;69.93
50380;BME280;37474;59.468;18.040;2023-04-04T08:40:38;102799.19;;;0.48;71.60
50380;BME280;37474;59.468;18.040;2023-04-04T08:43:07;102804.66;;;0.64;72.55
50380;BME280;37474;59.468;18.040;2023-04-04T08:45:37;102802.78;;;0.20;73.84
50380;BME280;37474;59.468;18.040;2023-04-04T08:48:13;102794.53;;;0.31;73.79
50380;BME280;37474;59.468;18.040;2023-04-04T08:50:42;102772.53;;;0.36;71.83
50380;BME280;37474;59.468;18.040;2023-04-04T08:53:11;102752.41;;;0.48;72.10
50380;BME280;37474;59.468;18.040;2023-04-04T08:55:43;102794.66;;;1.12;72.64
50380;BME280;37474;59.468;18.040;2023-04-04T08:58:13;102799.16;;;0.47;73.48
50380;BME280;37474;59.468;18.040;2023-04-04T09:00:51;102790.09;;;0.23;72.75
50380;BME280;37474;59.468;18.040;2023-04-04T09:03:23;102760.22;;;0.18;72.06
50380;BME280;37474;59.468;18.040;2023-04-04T09:05:56;102780.66;;;0.56;70.80
50380;BME280;37474;59.468;18.040;2023-04-04T09:08:23;102779.03;;;1.00;71.44
50380;BME280;37474;59.468;18.040;2023-04-04T09:10:52;102745.63;;;0.50;70.39
50380;BME280;37474;59.468;18.040;2023-04-04T09:13:23;102767.31;;;1.08;69.38
50380;BME280;37474;59.468;18.040;2023-04-04T09:15:56;102770.44;;;0.95;67.25
50380;BME280;37474;59.468;18.040;2023-04-04T09:18:29;102768.47;;;1.24;67.67
50380;BME280;37474;59.468;18.040;2023-04-04T09:20:58;102770.59;;;1.02;67.41
50380;BME280;37474;59.468;18.040;2023-04-04T09:23:26;102769.53;;;1.34;65.70
50380;BME280;37474;59.468;18.040;2023-04-04T09:25:56;102766.03;;;1.30;64.49
50380;BME280;37474;59.468;18.040;2023-04-04T09:28:30;102758.91;;;1.57;65.57
50380;BME280;37474;59.468;18.040;2023-04-04T09:31:01;102757.19;;;2.08;63.28
50380;BME280;37474;59.468;18.040;2023-04-04T09:33:31;102764.94;;;2.11;61.72
50380;BME280;37474;59.468;18.040;2023-04-04T09:36:06;102764.78;;;1.55;63.89
50380;BME280;37474;59.468;18.040;2023-04-04T09:38:38;102761.19;;;1.44;63.47
50380;BME280;37474;59.468;18.040;2023-04-04T09:41:07;102765.94;;;1.25;61.85
50380;BME280;37474;59.468;18.040;2023-04-04T09:43:38;102762.94;;;1.46;62.52
50380;BME280;37474;59.468;18.040;2023-04-04T09:46:07;102766.69;;;1.65;62.49
50380;BME280;37474;59.468;18.040;2023-04-04T09:48:38;102761.78;;;1.30;61.17
50380;BME280;37474;59.468;18.040;2023-04-04T09:51:11;102763.66;;;1.86;62.19
50380;BME280;37474;59.468;18.040;2023-04-04T09:53:39;102758.03;;;2.07;60.36
50380;BME280;37474;59.468;18.040;2023-04-04T09:56:07;102769.16;;;2.10;57.59
50380;BME280;37474;59.468;18.040;2023-04-04T09:58:38;102759.66;;;2.02;56.63
50380;BME280;37474;59.468;18.040;2023-04-04T10:01:19;102751.16;;;2.04;55.10
50380;BME280;37474;59.468;18.040;2023-04-04T10:03:50;102754.47;;;2.55;53.61
50380;BME280;37474;59.468;18.040;2023-04-04T10:06:19;102764.56;;;2.44;51.77
50380;BME280;37474;59.468;18.040;2023-04-04T10:08:48;102752.03;;;2.62;51.58
50380;BME280;37474;59.468;18.040;2023-04-04T10:11:27;102726.06;;;2.35;51.91
50380;BME280;37474;59.468;18.040;2023-04-04T10:13:58;102758.72;;;2.51;51.15
50380;BME280;37474;59.468;18.040;2023-04-04T10:16:30;102757.41;;;2.81;51.86
50380;BME280;37474;59.468;18.040;2023-04-04T10:19:00;102753.41;;;3.04;53.33
50380;BME280;37474;59.468;18.040;2023-04-04T10:21:30;102762.84;;;2.42;48.82
50380;BME280;37474;59.468;18.040;2023-04-04T10:23:59;102754.47;;;2.55;49.23
50380;BME280;37474;59.468;18.040;2023-04-04T10:26:29;102753.97;;;2.79;48.35
50380;BME280;37474;59.468;18.040;2023-04-04T10:28:57;102756.31;;;2.62;47.28
50380;BME280;37474;59.468;18.040;2023-04-04T10:31:25;102748.28;;;3.03;47.05
50380;BME280;37474;59.468;18.040;2023-04-04T10:34:02;102749.84;;;2.91;45.28
50380;BME280;37474;59.468;18.040;2023-04-04T10:36:40;102750.63;;;2.22;47.29
50380;BME280;37474;59.468;18.040;2023-04-04T10:39:13;102752.91;;;2.63;44.64
50380;BME280;37474;59.468;18.040;2023-04-04T10:41:45;102737.81;;;2.84;43.96
50380;BME280;37474;59.468;18.040;2023-04-04T10:44:23;102735.78;;;3.30;45.24
50380;BME280;37474;59.468;18.040;2023-04-04T10:46:58;102735.25;;;3.62;43.79
50380;BME280;37474;59.468;18.040;2023-04-04T10:49:30;102693.75;;;4.16;43.84
50380;BME280;37474;59.468;18.040;2023-04-04T10:51:58;102716.91;;;4.21;42.93
50380;BME280;37474;59.468;18.040;2023-04-04T10:54:29;102731.69;;;3.48;42.53
50380;BME280;37474;59.468;18.040;2023-04-04T10:56:57;102728.38;;;3.61;42.38
50380;BME280;37474;59.468;18.040;2023-04-04T10:59:27;102724.78;;;3.40;43.02
50380;BME280;37474;59.468;18.040;2023-04-04T11:01:56;102722.97;;;3.30;43.73
50380;BME280;37474;59.468;18.040;2023-04-04T11:04:31;102725.25;;;3.89;43.31
50380;BME280;37474;59.468;18.040;2023-04-04T11:07:09;102719.94;;;3.68;44.42
50380;BME280;37474;59.468;18.040;2023-04-04T11:09:51;102722.78;;;4.05;41.46
50380;BME280;37474;59.468;18.040;2023-04-04T11:12:20;102716.75;;;4.00;42.15
50380;BME280;37474;59.468;18.040;2023-04-04T11:15:08;102712.28;;;3.77;41.69
50380;BME280;37474;59.468;18.040;2023-04-04T11:17:41;102707.44;;;4.12;41.14
50380;BME280;37474;59.468;18.040;2023-04-04T11:20:15;102708.31;;;4.11;41.29
50380;BME280;37474;59.468;18.040;2023-04-04T11:22:43;102714.50;;;3.37;41.73
50380;BME280;37474;59.468;18.040;2023-04-04T11:25:30;102707.00;;;3.56;43.29
50380;BME280;37474;59.468;18.040;2023-04-04T11:28:03;102706.69;;;3.25;42.27
50380;BME280;37474;59.468;18.040;2023-04-04T11:30:36;102709.41;;;3.40;41.45
50380;BME280;37474;59.468;18.040;2023-04-04T11:33:05;102696.84;;;3.68;41.86
50380;BME280;37474;59.468;18.040;2023-04-04T11:35:38;102698.50;;;3.66;41.99
50380;BME280;37474;59.468;18.040;2023-04-04T11:38:15;102688.97;;;3.50;43.56
50380;BME280;37474;59.468;18.040;2023-04-04T11:40:52;102689.59;;;4.28;41.33
50380;BME280;37474;59.468;18.040;2023-04-04T11:43:20;102657.75;;;4.01;44.00
50380;BME280;37474;59.468;18.040;2023-04-04T11:45:49;102691.16;;;4.09;42.51
50380;BME280;37474;59.468;18.040;2023-04-04T11:48:18;102681.75;;;4.09;42.28
50380;BME280;37474;59.468;18.040;2023-04-04T11:50:52;102636.31;;;3.94;43.16
50380;BME280;37474;59.468;18.040;2023-04-04T11:53:20;102677.47;;;4.10;41.87
50380;BME280;37474;59.468;18.040;2023-04-04T11:55:48;102680.81;;;3.96;43.09
50380;BME280;37474;59.468;18.040;2023-04-04T11:58:19;102682.41;;;3.79;42.39
50380;BME280;37474;59.468;18.040;2023-04-04T12:00:46;102684.06;;;3.77;45.17
50380;BME280;37474;59.468;18.040;2023-04-04T12:03:16;102679.88;;;3.85;43.78
50380;BME280;37474;59.468;18.040;2023-04-04T12:05:45;102672.50;;;4.37;44.91
50380;BME280;37474;59.468;18.040;2023-04-04T12:08:16;102670.63;;;4.10;43.09
50380;BME280;37474;59.468;18.040;2023-04-04T12:10:47;102671.53;;;4.18;42.12
50380;BME280;37474;59.468;18.040;2023-04-04T12:13:15;102672.81;;;3.60;43.04
50380;BME280;37474;59.468;18.040;2023-04-04T12:15:46;102675.19;;;3.38;43.87
50380;BME280;37474;59.468;18.040;2023-04-04T12:18:20;102661.88;;;3.79;43.53
50380;BME280;37474;59.468;18.040;2023-04-04T12:20:49;102671.69;;;3.30;44.90
50380;BME280;37474;59.468;18.040;2023-04-04T12:23:19;102665.97;;;3.59;45.03
50380;BME280;37474;59.468;18.040;2023-04-04T12:25:47;102637.66;;;3.47;45.50
50380;BME280;37474;59.468;18.040;2023-04-04T12:28:22;102668.66;;;3.74;45.36
50380;BME280;37474;59.468;18.040;2023-04-04T12:30:53;102631.09;;;3.81;44.21
50380;BME280;37474;59.468;18.040;2023-04-04T12:33:25;102661.69;;;3.59;44.48
50380;BME280;37474;59.468;18.040;2023-04-04T12:35:53;102656.41;;;3.39;44.47
50380;BME280;37474;59.468;18.040;2023-04-04T12:38:25;102646.47;;;3.82;44.64
50380;BME280;37474;59.468;18.040;2023-04-04T12:40:55;102653.91;;;3.49;46.54
50380;BME280;37474;59.468;18.040;2023-04-04T12:43:30;102656.66;;;3.67;45.16
50380;BME280;37474;59.468;18.040;2023-04-04T12:46:01;102650.63;;;3.65;45.96
50380;BME280;37474;59.468;18.040;2023-04-04T12:48:29;102651.53;;;3.70;45.75
50380;BME280;37474;59.468;18.040;2023-04-04T12:51:00;102649.63;;;3.48;46.42
50380;BME280;37474;59.468;18.040;2023-04-04T12:53:49;102642.94;;;3.65;45.59
50380;BME280;37474;59.468;18.040;2023-04-04T12:56:18;102608.75;;;3.66;46.42